TAF KJVL
KJVL 072320Z 0800/0824 16007KT P6SM BKN050 FM080900 19004KT P6SM BKN060 FM081500 34005KT P6SM FEW150 FM082200 01004KT P6SM FEW200=
METAR KJVL
WC KJVL
WS KJVL
WV KJVL